Jeffboat — WDC6544 — position and weather

sailwx.info

Track history (hours):
 
Tides and Currents Weather Stations Pressure Air Temp Water Temp Dewpoint Dewpoint Depression Visibility Wind Speed Wind Dir Waves Ship Positions

Jeffboat

Owner: American Commercial Lines LLC, Jeffersonville, IN. More information available from US FCC via Universal Licensing System and Coast Guard Vessel Documentation Center.

Last reported at 2018-Jun-04 05:24 UTC. Time now 2018-Jun-19 02:44 UTC.
Position N 33°09' W 091°05'.
Warning: this ship's position is 14 days out of date.

Length 43 m; draft 3 m.

Type: Towing. MMSI: 367057720.

Date/timePositionNaut miles runAvg speedWind from/ knotsBaromVisibWave heightAir tempDewpointWater temp
2018-Jun-04 05:24N 33°09' W 091°05'32 2.4
2018-Jun-03 16:01N 32°38' W 091°09'0 4.8
2018-Jun-03 15:58N 32°37' W 091°09'2 4.1
2018-Jun-03 15:30N 32°36' W 091°08'2 3.9
2018-Jun-03 15:00N 32°34' W 091°06'2 3.7
2018-Jun-03 14:30N 32°32' W 091°06'3 4.0
2018-Jun-03 13:47N 32°30' W 091°07'1 4.0
2018-Jun-03 13:30N 32°29' W 091°07'2 3.6
2018-Jun-03 12:59N 32°27' W 091°05'2 3.9
2018-Jun-03 12:30N 32°26' W 091°03'2 4.0
2018-Jun-03 12:00N 32°26' W 091°01'2 3.7
2018-Jun-03 11:30N 32°25' W 090°59'1 2.7
2018-Jun-03 11:00N 32°23' W 090°60'1 1.5
2018-Jun-03 10:30N 32°23' W 091°00'0 0.5
2018-Jun-03 10:00N 32°22' W 091°00'1 2.5
2018-Jun-03 09:30N 32°21' W 090°60'1 2.4
2018-Jun-03 08:59N 32°21' W 090°58'0 0.0
2018-Jun-03 08:30N 32°21' W 090°58'0 0.1
2018-Jun-03 08:00N 32°21' W 090°58'2 3.5
2018-Jun-03 07:30N 32°21' W 090°56'2 3.8
2018-Jun-03 07:00N 32°20' W 090°54'2 3.5
2018-Jun-03 06:30N 32°18' W 090°55'0 0.3
2018-Jun-03 06:00N 32°18' W 090°55'0 0.0
2018-Jun-03 05:30N 32°18' W 090°55'0 0.0
2018-Jun-03 05:00N 32°18' W 090°55'1 1.4
2018-Jun-03 04:30N 32°18' W 090°56'2 3.6
2018-Jun-03 04:00N 32°16' W 090°57'2 3.9
2018-Jun-03 03:30N 32°15' W 090°59'1 2.6
2018-Jun-03 03:00N 32°14' W 090°59'1 2.4
2018-Jun-03 02:30N 32°13' W 090°59'2 3.6
2018-Jun-03 02:00N 32°11' W 090°60'2 3.7
2018-Jun-03 01:30N 32°09' W 091°00'2 3.9
2018-Jun-03 01:00N 32°07' W 091°01'2 3.3
2018-Jun-03 00:30N 32°07' W 091°03'2 4.2
2018-Jun-02 23:56N 32°08' W 091°06'1 3.4
2018-Jun-02 23:30N 32°07' W 091°06'3 4.4
2018-Jun-02 22:52N 32°05' W 091°04'2 3.9
2018-Jun-02 22:28N 32°03' W 091°04'  
2018-May-29 20:31N 31°60' W 091°06'0 8.5
2018-May-29 20:29N 31°60' W 091°05'4 8.2
2018-May-29 19:57N 32°04' W 091°04'4 8.7
2018-May-29 19:30N 32°07' W 091°07'4 7.2
2018-May-29 19:00N 32°07' W 091°02'4 7.4
2018-May-29 18:30N 32°10' W 091°00'4 8.5
2018-May-29 18:00N 32°14' W 090°59'4 8.0
2018-May-29 17:30N 32°18' W 090°56'1 2.1
2018-May-29 17:00N 32°18' W 090°55'0 0.1
2018-May-29 16:30N 32°18' W 090°55'0 0.0
2018-May-29 16:00N 32°18' W 090°55'0 0.0
2018-May-29 15:30N 32°18' W 090°55'1 2.0
2018-May-29 15:00N 32°19' W 090°54'3 6.5
2018-May-29 14:30N 32°21' W 090°57'3 5.9
2018-May-29 14:00N 32°23' W 090°60'3 6.6
2018-May-29 13:30N 32°26' W 091°02'4 8.2
2018-May-29 13:00N 32°28' W 091°06'5 7.7
2018-May-29 12:20N 32°33' W 091°06'3 7.8
2018-May-29 12:00N 32°35' W 091°08'  
Track history (hours):
 
Tides and Currents Weather Stations Pressure Air Temp Water Temp Dewpoint Dewpoint Depression Visibility Wind Speed Wind Dir Waves Ship Positions

Jeffboat

Owner: American Commercial Lines LLC, Jeffersonville, IN. More information available from US FCC via Universal Licensing System and Coast Guard Vessel Documentation Center.

Last reported at 2018-Jun-04 05:24 UTC. Time now 2018-Jun-19 02:44 UTC.
Position N 33°09' W 091°05'.
Warning: this ship's position is 14 days out of date.

Length 43 m; draft 3 m.

Type: Towing. MMSI: 367057720.

Date/timePositionNaut miles runAvg speedWind from/ knotsBaromVisibWave heightAir tempDewpointWater temp
2018-Jun-04 05:24N 33°09' W 091°05'32 2.4
2018-Jun-03 16:01N 32°38' W 091°09'0 4.8
2018-Jun-03 15:58N 32°37' W 091°09'2 4.1
2018-Jun-03 15:30N 32°36' W 091°08'2 3.9
2018-Jun-03 15:00N 32°34' W 091°06'2 3.7
2018-Jun-03 14:30N 32°32' W 091°06'3 4.0
2018-Jun-03 13:47N 32°30' W 091°07'1 4.0
2018-Jun-03 13:30N 32°29' W 091°07'2 3.6
2018-Jun-03 12:59N 32°27' W 091°05'2 3.9
2018-Jun-03 12:30N 32°26' W 091°03'2 4.0
2018-Jun-03 12:00N 32°26' W 091°01'2 3.7
2018-Jun-03 11:30N 32°25' W 090°59'1 2.7
2018-Jun-03 11:00N 32°23' W 090°60'1 1.5
2018-Jun-03 10:30N 32°23' W 091°00'0 0.5
2018-Jun-03 10:00N 32°22' W 091°00'1 2.5
2018-Jun-03 09:30N 32°21' W 090°60'1 2.4
2018-Jun-03 08:59N 32°21' W 090°58'0 0.0
2018-Jun-03 08:30N 32°21' W 090°58'0 0.1
2018-Jun-03 08:00N 32°21' W 090°58'2 3.5
2018-Jun-03 07:30N 32°21' W 090°56'2 3.8
2018-Jun-03 07:00N 32°20' W 090°54'2 3.5
2018-Jun-03 06:30N 32°18' W 090°55'0 0.3
2018-Jun-03 06:00N 32°18' W 090°55'0 0.0
2018-Jun-03 05:30N 32°18' W 090°55'0 0.0
2018-Jun-03 05:00N 32°18' W 090°55'1 1.4
2018-Jun-03 04:30N 32°18' W 090°56'2 3.6
2018-Jun-03 04:00N 32°16' W 090°57'2 3.9
2018-Jun-03 03:30N 32°15' W 090°59'1 2.6
2018-Jun-03 03:00N 32°14' W 090°59'1 2.4
2018-Jun-03 02:30N 32°13' W 090°59'2 3.6
2018-Jun-03 02:00N 32°11' W 090°60'2 3.7
2018-Jun-03 01:30N 32°09' W 091°00'2 3.9
2018-Jun-03 01:00N 32°07' W 091°01'2 3.3
2018-Jun-03 00:30N 32°07' W 091°03'2 4.2
2018-Jun-02 23:56N 32°08' W 091°06'1 3.4
2018-Jun-02 23:30N 32°07' W 091°06'3 4.4
2018-Jun-02 22:52N 32°05' W 091°04'2 3.9
2018-Jun-02 22:28N 32°03' W 091°04'  
2018-May-29 20:31N 31°60' W 091°06'0 8.5
2018-May-29 20:29N 31°60' W 091°05'4 8.2
2018-May-29 19:57N 32°04' W 091°04'4 8.7
2018-May-29 19:30N 32°07' W 091°07'4 7.2
2018-May-29 19:00N 32°07' W 091°02'4 7.4
2018-May-29 18:30N 32°10' W 091°00'4 8.5
2018-May-29 18:00N 32°14' W 090°59'4 8.0
2018-May-29 17:30N 32°18' W 090°56'1 2.1
2018-May-29 17:00N 32°18' W 090°55'0 0.1
2018-May-29 16:30N 32°18' W 090°55'0 0.0
2018-May-29 16:00N 32°18' W 090°55'0 0.0
2018-May-29 15:30N 32°18' W 090°55'1 2.0
2018-May-29 15:00N 32°19' W 090°54'3 6.5
2018-May-29 14:30N 32°21' W 090°57'3 5.9
2018-May-29 14:00N 32°23' W 090°60'3 6.6
2018-May-29 13:30N 32°26' W 091°02'4 8.2
2018-May-29 13:00N 32°28' W 091°06'5 7.7
2018-May-29 12:20N 32°33' W 091°06'3 7.8
2018-May-29 12:00N 32°35' W 091°08'  

Dump ship's entire track history